K5TWC Weather Reports


Display with metric or nautical units.
time (UTC)temp
F
wind
direction
speed
MPH
gust
MPH
rain 1hr
in
rain 24hr
in
rain mn
in
humidity
%
barometer
mb
20220524193046 67 323 2.0 10.0 0.04 0.05 0.05 89 1006.6
20220524191548 67 338 5.0 12.0 0.00 0.01 0.01 85 1006.6
20220524190046 67 323 6.0 10.0 0.00 0.01 0.01 85 1007.1
20220524184544 67 324 4.0 14.0 0.00 0.01 0.01 84 1007.2
20220524183055 75 5 6.0 14.0 0.00 0.01 0.01 75 1007.0
20220524181543 76 117 2.0 7.0 0.00 0.01 0.01 85 1006.6
20220524180040 76 172 2.0 8.0 0.00 0.01 0.01 84 1006.6
20220524174540 75 161 0.0 7.0 0.00 0.01 0.01 83 1006.8
20220524173038 75 190 0.0 7.0 0.00 0.01 0.01 82 1006.7
20220524171537 75 144 0.0 7.0 0.00 0.01 0.01 81 1006.8
20220524170037 76 153 1.0 8.0 0.00 0.01 0.01 81 1006.8
20220524164536 75 144 3.0 10.0 0.00 0.01 0.01 81 1006.7
20220524163033 74 133 4.0 17.0 0.00 0.01 0.01 83 1006.8
20220524161531 74 163 3.0 9.0 0.00 0.01 0.01 82 1007.1
20220524160042 74 143 6.0 11.0 0.00 0.01 0.01 83 1007.2
20220524154528 72 156 4.0 13.0 0.00 0.01 0.01 87 1007.2
20220524153025 71 161 5.0 11.0 0.00 0.01 0.01 87 1007.7
20220524151522 71 153 3.0 9.0 0.00 0.01 0.01 88 1007.7
20220524150025 70 125 4.0 12.0 0.00 0.01 0.01 89 1007.9
20220524144527 70 138 4.0 12.0 0.00 0.01 0.01 90 1008.1
20220524143019 69 138 2.0 10.0 0.00 0.01 0.01 92 1007.8
20220524141514 68 135 3.0 14.0 0.00 0.01 0.01 92 1007.5
20220524140013 68 115 8.0 14.0 0.00 0.01 0.01 93 1007.2
20220524134511 68 132 2.0 12.0 0.01 0.01 0.01 93 1008.2
20220524133011 68 144 4.0 10.0 0.01 0.01 0.01 93 1008.4
20220524131510 67 138 3.0 11.0 0.01 0.01 0.01 93 1008.5
20220524130008 67 118 3.0 11.0 0.01 0.01 0.01 92 1008.4
20220524124508 68 120 6.0 14.0 0.00 0.00 0.00 91 1008.6
20220524123007 68 134 2.0 11.0 0.00 0.00 0.00 90 1008.7
20220524121508 68 137 3.0 14.0 0.00 0.00 0.00 89 1008.7
20220524120007 68 126 5.0 11.0 0.00 0.00 0.00 89 1008.7
20220524114516 68 159 0.0 11.0 0.00 0.00 0.00 88 1008.8
20220524113007 68 142 2.0 9.0 0.00 0.00 0.00 88 1008.8
20220524111506 68 124 2.0 6.0 0.00 0.00 0.00 88 1009.2
20220524110002 68 150 2.0 7.0 0.00 0.00 0.00 88 1009.3
20220524104502 68 131 0.0 6.0 0.00 0.00 0.00 88 1009.4
20220524103005 68 138 1.0 8.0 0.00 0.00 0.00 88 1009.4
20220524101608 68 137 3.0 8.0 0.00 0.00 0.00 88 1009.4
20220524101502 68 132 3.0 8.0 0.00 0.00 0.00 88 1009.4
20220524100104 67 131 1.0 9.0 0.00 0.00 0.00 87 1009.3
20220524094559 67 127 1.0 7.0 0.00 0.00 0.00 88 1009.2
20220524093108 67 123 2.0 11.0 0.00 0.00 0.00 87 1009.4
20220524091606 67 138 4.0 9.0 0.00 0.00 0.00 88 1009.3
20220524090133 67 116 2.0 11.0 0.00 0.00 0.00 88 1009.4
20220524084557 67 116 3.0 7.0 0.00 0.00 0.00 88 1009.4
20220524083057 67 130 3.0 13.0 0.00 0.00 0.00 88 1009.2
20220524081604 67 128 6.0 13.0 0.00 0.00 0.00 88 1008.9
20220524080107 67 126 6.0 13.0 0.00 0.00 0.00 87 1009.3
20220524074557 67 118 3.0 11.0 0.00 0.00 0.00 87 1009.4
20220524073052 67 111 7.0 12.0 0.00 0.00 0.00 87 1009.6
20220524071552 67 130 7.0 12.0 0.00 0.00 0.00 87 1010.0
20220524070051 67 115 8.0 17.0 0.00 0.00 0.00 86 1010.0
20220524064619 67 113 9.0 16.0 0.00 0.00 0.00 86 1010.5
20220524063044 67 97 5.0 14.0 0.00 0.00 0.00 86 1010.5
20220524061551 67 88 7.0 15.0 0.00 0.00 0.00 85 1010.4
20220524060101 67 93 7.0 16.0 0.00 0.00 0.00 85 1011.0
20220524054541 67 118 9.0 17.0 0.00 0.00 0.00 85 1011.0
20220524053041 67 132 8.0 15.0 0.00 0.00 0.00 85 1011.0
20220524051537 67 116 6.0 18.0 0.00 0.00 0.00 85 1011.5
20220524050040 67 109 4.0 17.0 0.00 0.00 0.00 85 1011.7
20220524044537 68 159 6.0 15.0 0.00 0.00 0.00 84 1012.1
20220524043033 67 136 7.0 14.0 0.00 0.00 0.00 84 1011.9
20220524041532 67 150 9.0 15.0 0.00 0.00 0.00 84 1012.1
20220524040031 68 55 5.0 16.0 0.00 0.00 0.00 83 1011.7
20220524034533 68 122 7.0 14.0 0.00 0.00 0.00 83 1012.0
20220524033030 68 123 7.0 14.0 0.00 0.00 0.00 83 1012.0
20220524031537 68 137 9.0 17.0 0.00 0.00 0.00 82 1012.4
20220524030029 69 90 8.0 16.0 0.00 0.00 0.00 82 1013.1
20220524024532 69 120 5.0 12.0 0.00 0.00 0.00 82 1012.9
20220524023028 69 108 3.0 10.0 0.00 0.00 0.00 82 1012.7
20220524021528 69 117 4.0 14.0 0.00 0.00 0.00 81 1012.6
20220524020033 70 113 4.0 13.0 0.00 0.00 0.00 80 1012.6
20220524014542 71 99 4.0 10.0 0.00 0.00 0.00 80 1012.5
20220524013026 71 132 4.0 14.0 0.00 0.00 0.00 79 1012.1
20220524011525 72 142 5.0 14.0 0.00 0.00 0.00 78 1012.1
20220524010036 73 97 3.0 9.0 0.00 0.00 0.00 77 1012.1
20220524004532 74 74 4.0 8.0 0.00 0.00 0.00 76 1012.1
20220524003024 74 149 3.0 8.0 0.00 0.00 0.00 75 1012.1
20220524001525 75 101 2.0 6.0 0.00 0.00 0.00 74 1012.1
20220524000029 75 121 0.0 7.0 0.00 0.00 0.00 74 1012.1
20220523234522 75 105 2.0 5.0 0.00 0.00 0.00 74 1012.1
20220523233022 75 125 2.0 8.0 0.00 0.00 0.00 73 1012.2
20220523231524 76 104 2.0 8.0 0.00 0.00 0.00 73 1012.6
20220523230034 76 90 0.0 6.0 0.00 0.00 0.00 71 1012.7
20220523224532 77 76 1.0 7.0 0.00 0.00 0.00 69 1012.9
20220523223035 78 120 1.0 7.0 0.00 0.00 0.00 67 1013.1
20220523221519 79 116 2.0 9.0 0.00 0.00 0.00 65 1012.9
20220523220019 79 117 3.0 11.0 0.00 0.00 0.00 66 1012.7
20220523214515 78 119 6.0 11.0 0.00 0.00 0.00 68 1012.6
20220523213013 78 113 3.0 9.0 0.00 0.00 0.00 68 1012.6
20220523211511 78 134 3.0 9.0 0.00 0.00 0.00 69 1012.7
20220523210012 77 130 4.0 11.0 0.00 0.00 0.00 70 1012.8
20220523204510 77 134 6.0 12.0 0.00 0.00 0.00 70 1012.9
20220523203010 77 90 5.0 12.0 0.00 0.00 0.00 70 1013.2
20220523201507 77 136 4.0 10.0 0.00 0.00 0.00 70 1013.7
20220523200005 76 72 5.0 10.0 0.00 0.00 0.00 71 1014.1
20220523194505 75 134 5.0 13.0 0.00 0.00 0.00 72 1014.4